Time;durP1;ratioP1;P1;durP2;ratioP2;P2;SDS_P1;SDS_P2;PMS_P1;PMS_P2;Temp;Humidity;BMP_temperature;BMP_pressure;BME280_temperature;BME280_humidity;BME280_pressure;Samples;Min_cycle;Max_cycle;Signal;HPM_P1;HPM_P2
2022/12/02 00:02:34;;;;;;;1.50;1.40;;;;;;;-11.22;77.31;101755.69;5030614;28;20049;-86
2022/12/02 00:05:14;;;;;;;1.50;1.40;;;;;;;-11.31;77.24;101740.31;5030932;28;20489;-84
2022/12/02 00:07:41;;;;;;;1.40;1.30;;;;;;;-11.33;77.17;101743.84;4996952;28;20061;-85
2022/12/02 00:10:30;;;;;;;1.45;1.35;;;;;;;-11.31;77.41;101749.88;5030301;28;20098;-85
2022/12/02 00:13:26;;;;;;;1.40;1.30;;;;;;;-11.33;77.46;101742.09;5031353;28;20462;-85
2022/12/02 00:15:57;;;;;;;1.30;1.20;;;;;;;-11.38;77.39;101744.78;5030962;28;20057;-85
2022/12/02 00:18:24;;;;;;;1.40;1.30;;;;;;;-11.36;77.50;101743.00;5030345;28;20123;-85
2022/12/02 00:20:51;;;;;;;1.52;1.42;;;;;;;-11.38;77.43;101736.13;5030194;28;20054;-85
2022/12/02 00:23:19;;;;;;;1.30;1.20;;;;;;;-11.37;77.50;101753.47;5012438;28;20095;-85
2022/12/02 00:25:48;;;;;;;1.40;1.30;;;;;;;-11.43;77.43;101735.38;5030445;28;20053;-85
2022/12/02 00:28:15;;;;;;;1.42;1.33;;;;;;;-11.39;77.45;101737.88;5012710;28;20148;-85
2022/12/02 00:30:43;;;;;;;1.50;1.40;;;;;;;-11.38;77.54;101736.13;5030716;28;20053;-86
2022/12/02 00:33:11;;;;;;;1.45;1.35;;;;;;;-11.36;77.63;101732.59;5030250;28;20045;-85
2022/12/02 00:35:38;;;;;;;1.40;1.30;;;;;;;-11.33;77.84;101731.66;5030068;28;20057;-84
2022/12/02 00:38:05;;;;;;;1.40;1.30;;;;;;;-11.26;77.66;101727.16;5012581;28;20049;-85
2022/12/02 00:40:32;;;;;;;1.60;1.50;;;;;;;-11.18;77.57;101731.25;5012604;28;20498;-84
2022/12/02 00:46:30;;;;;;;1.40;1.30;;;;;;;-11.16;77.54;101726.88;5030746;28;20056;-85
2022/12/02 00:48:34;;;;;;;1.40;1.30;;;;;;;-11.11;77.37;101731.97;5012463;28;20140;-86
2022/12/02 00:51:02;;;;;;;1.30;1.20;;;;;;;-11.05;77.14;101726.59;5030218;28;20147;-85
2022/12/02 00:53:31;;;;;;;1.40;1.30;;;;;;;-11.01;77.11;101719.53;5013118;28;20045;-84
2022/12/02 00:55:58;;;;;;;1.50;1.40;;;;;;;-10.91;76.81;101729.69;5012469;28;20428;-86
2022/12/02 00:58:25;;;;;;;1.40;1.30;;;;;;;-10.86;76.85;101736.53;5030406;28;20045;-85
2022/12/02 01:00:52;;;;;;;1.15;1.13;;;;;;;-10.84;76.79;101730.38;5030274;28;20049;-84
2022/12/02 01:03:19;;;;;;;1.10;1.10;;;;;;;-10.76;76.55;101719.72;5030161;28;20073;-86
2022/12/02 01:05:46;;;;;;;1.40;1.30;;;;;;;-10.75;76.45;101722.31;5030137;28;20077;-85
2022/12/02 01:08:13;;;;;;;1.50;1.40;;;;;;;-10.68;76.29;101723.00;5031323;28;20103;-84
2022/12/02 01:10:40;;;;;;;1.40;1.30;;;;;;;-10.68;75.88;101723.00;5034201;28;20045;-84
2022/12/02 01:13:10;;;;;;;1.02;1.02;;;;;;;-10.75;76.14;101713.63;5016280;28;20136;-84
2022/12/02 01:15:37;;;;;;;1.30;1.20;;;;;;;-10.79;75.80;101723.28;5035836;28;20049;-84
2022/12/02 01:18:04;;;;;;;1.40;1.30;;;;;;;-10.74;75.87;101741.41;5027190;28;20049;-83
2022/12/02 01:20:31;;;;;;;1.08;1.08;;;;;;;-10.81;75.86;101737.25;5045695;28;20087;-84
2022/12/02 01:22:58;;;;;;;1.40;1.30;;;;;;;-10.75;75.90;101735.34;5048587;28;20061;-84
2022/12/02 01:25:25;;;;;;;1.15;1.15;;;;;;;-10.72;75.76;101724.81;5048421;28;20072;-85
2022/12/02 01:27:52;;;;;;;1.42;1.33;;;;;;;-10.71;75.88;101729.16;5046966;28;20559;-85
2022/12/02 01:30:20;;;;;;;1.38;1.27;;;;;;;-10.62;75.67;101716.75;5028967;28;20045;-85
2022/12/02 01:32:47;;;;;;;1.48;1.38;;;;;;;-10.62;75.32;101709.78;5012513;28;20053;-84
2022/12/02 01:35:14;;;;;;;1.50;1.40;;;;;;;-10.64;75.38;101715.94;5046179;28;20058;-85
2022/12/02 01:37:41;;;;;;;1.40;1.30;;;;;;;-10.67;75.40;101713.41;5019993;28;20056;-85
2022/12/02 01:40:10;;;;;;;1.10;1.10;;;;;;;-10.65;75.41;101725.53;5031739;28;20049;-85
2022/12/02 01:42:39;;;;;;;1.35;1.25;;;;;;;-10.67;75.50;101716.03;5042022;28;20059;-85
2022/12/02 01:45:07;;;;;;;1.30;1.20;;;;;;;-10.67;75.49;101719.47;4985347;28;20049;-86
2022/12/02 01:47:35;;;;;;;1.45;1.35;;;;;;;-10.67;75.33;101722.09;5001545;28;20076;-86
2022/12/02 01:50:04;;;;;;;1.23;1.17;;;;;;;-10.64;75.49;101718.53;5039182;28;20049;-86
2022/12/02 01:52:31;;;;;;;1.40;1.30;;;;;;;-10.59;75.32;101725.34;5021871;28;20057;-86
2022/12/02 01:54:58;;;;;;;1.30;1.20;;;;;;;-10.55;75.42;101719.16;5003508;28;20045;-86
2022/12/02 01:57:28;;;;;;;1.30;1.20;;;;;;;-10.52;75.09;101716.44;5032107;28;20045;-86
2022/12/02 01:59:55;;;;;;;1.50;1.40;;;;;;;-10.50;75.22;101712.03;5031749;28;20141;-85
2022/12/02 02:02:28;;;;;;;1.10;1.10;;;;;;;-10.44;75.26;101720.59;5015100;28;20060;-86
2022/12/02 02:04:59;;;;;;;1.33;1.23;;;;;;;-10.42;75.33;101711.81;5015957;28;20049;-86
2022/12/02 02:07:27;;;;;;;1.23;1.15;;;;;;;-10.39;75.37;101716.94;5018144;28;20057;-85
2022/12/02 02:09:55;;;;;;;1.27;1.17;;;;;;;-10.41;75.16;101716.13;5022322;28;20045;-85
2022/12/02 02:12:23;;;;;;;1.40;1.30;;;;;;;-10.34;75.45;101717.66;5035093;28;20411;-85
2022/12/02 02:15:13;;;;;;;1.27;1.20;;;;;;;-10.26;75.23;101718.25;5031375;28;20045;-85
2022/12/02 02:17:40;;;;;;;1.50;1.40;;;;;;;-10.21;75.59;101722.50;5024273;28;20092;-86
2022/12/02 02:20:11;;;;;;;1.50;1.40;;;;;;;-10.19;75.51;101708.50;5016081;28;20049;-86
2022/12/02 02:22:49;;;;;;;1.40;1.30;;;;;;;-10.18;75.62;101711.94;5031472;28;20346;-85
2022/12/02 02:25:17;;;;;;;1.60;1.50;;;;;;;-10.14;75.70;101708.34;4982570;28;20101;-86
2022/12/02 02:27:54;;;;;;;1.40;1.30;;;;;;;-10.09;75.71;101714.31;5014262;28;20061;-86
2022/12/02 02:30:22;;;;;;;1.45;1.35;;;;;;;-10.10;75.79;101707.34;5014307;28;20045;-86
2022/12/02 02:32:51;;;;;;;1.10;1.10;;;;;;;-10.14;76.12;101703.13;5014530;28;20050;-85
2022/12/02 02:35:19;;;;;;;1.50;1.40;;;;;;;-10.17;76.06;101700.63;5014358;28;20136;-85
2022/12/02 02:37:48;;;;;;;1.30;1.20;;;;;;;-10.20;76.24;101701.56;5031887;28;20057;-85
2022/12/02 02:40:17;;;;;;;1.25;1.20;;;;;;;-10.24;76.18;101692.09;4998130;28;20141;-85
2022/12/02 02:42:46;;;;;;;1.10;1.10;;;;;;;-10.31;76.67;101683.63;5014305;28;20534;-85
2022/12/02 02:45:14;;;;;;;1.40;1.30;;;;;;;-10.30;76.67;101687.09;5015296;28;20111;-86
2022/12/02 02:47:41;;;;;;;1.40;1.30;;;;;;;-10.36;76.75;101680.28;4998919;28;20053;-85
2022/12/02 02:50:09;;;;;;;1.38;1.27;;;;;;;-10.30;76.97;101689.72;5020993;28;20049;-85
2022/12/02 02:52:37;;;;;;;1.40;1.30;;;;;;;-10.36;76.90;101689.88;5022867;28;20125;-85
2022/12/02 02:55:05;;;;;;;1.23;1.20;;;;;;;-10.36;77.22;101687.28;5016830;28;20546;-87
2022/12/02 02:57:34;;;;;;;1.40;1.30;;;;;;;-10.35;77.19;101689.00;5005667;28;20053;-86
2022/12/02 03:00:03;;;;;;;1.40;1.30;;;;;;;-10.35;77.42;101686.38;5041588;28;20056;-87
2022/12/02 03:02:31;;;;;;;1.42;1.33;;;;;;;-10.37;77.59;101688.19;5002018;28;20132;-86
2022/12/02 03:04:59;;;;;;;1.33;1.23;;;;;;;-10.32;77.55;101681.91;5041920;28;20060;-88
2022/12/02 03:07:26;;;;;;;1.10;1.10;;;;;;;-10.32;77.64;101691.50;5032183;28;20053;-85
2022/12/02 03:09:53;;;;;;;1.40;1.30;;;;;;;-10.28;77.81;101699.22;5015352;28;20064;-86
2022/12/02 03:12:21;;;;;;;1.40;1.30;;;;;;;-10.23;77.94;101698.19;4997590;28;20061;-86
2022/12/02 03:14:48;;;;;;;1.50;1.40;;;;;;;-10.21;77.84;101705.06;5030754;28;20420;-86
2022/12/02 03:17:16;;;;;;;1.30;1.20;;;;;;;-10.25;77.62;101713.91;5014448;28;20508;-86
2022/12/02 03:19:44;;;;;;;1.40;1.30;;;;;;;-10.31;77.60;101706.28;5032810;28;20052;-86
2022/12/02 03:22:11;;;;;;;1.38;1.27;;;;;;;-10.30;77.62;101700.16;5010754;28;20054;-85
2022/12/02 03:24:38;;;;;;;1.27;1.17;;;;;;;-10.29;77.60;101709.69;5005985;28;20041;-86
2022/12/02 03:27:06;;;;;;;1.27;1.23;;;;;;;-10.29;77.49;101717.53;5039311;28;20064;-86
2022/12/02 03:29:34;;;;;;;1.08;1.08;;;;;;;-10.30;77.59;101716.69;5014666;28;20046;-87
2022/12/02 03:32:01;;;;;;;1.50;1.40;;;;;;;-10.31;77.55;101714.94;5012227;28;20056;-86
2022/12/02 03:34:29;;;;;;;1.10;1.10;;;;;;;-10.32;77.44;101713.25;5027659;28;20064;-86
2022/12/02 03:36:57;;;;;;;1.40;1.30;;;;;;;-10.35;77.81;101707.28;5030235;28;20049;-85
2022/12/02 03:39:25;;;;;;;1.17;1.15;;;;;;;-10.32;77.38;101713.25;5011519;28;20519;-86
2022/12/02 03:41:52;;;;;;;1.50;1.40;;;;;;;-10.34;77.59;101708.97;5011363;28;20085;-87
2022/12/02 03:44:20;;;;;;;1.30;1.20;;;;;;;-10.37;77.38;101720.38;5027331;28;20413;-86
2022/12/02 03:46:47;;;;;;;1.10;1.10;;;;;;;-10.41;77.30;101718.72;5026352;28;20057;-86
2022/12/02 03:49:15;;;;;;;1.50;1.40;;;;;;;-10.47;77.45;101716.31;5011649;28;20069;-86
2022/12/02 03:51:44;;;;;;;1.27;1.20;;;;;;;-10.46;77.58;101718.00;5010668;28;20118;-85
2022/12/02 03:54:12;;;;;;;1.17;1.13;;;;;;;-10.42;77.39;101718.78;4994048;28;20057;-86
2022/12/02 03:56:40;;;;;;;1.50;1.40;;;;;;;-10.47;77.68;101721.53;5011725;28;20164;-85
2022/12/02 03:59:08;;;;;;;1.33;1.23;;;;;;;-10.52;77.57;101716.44;5009732;28;20054;-86
2022/12/02 04:01:35;;;;;;;1.30;1.20;;;;;;;-10.61;78.06;101719.28;5009438;28;20149;-84
2022/12/02 04:04:02;;;;;;;1.40;1.30;;;;;;;-10.60;77.68;101731.47;5008273;28;20052;-87
2022/12/02 04:06:30;;;;;;;1.40;1.30;;;;;;;-10.61;77.95;101719.28;5008844;28;20416;-85
2022/12/02 04:08:57;;;;;;;1.30;1.20;;;;;;;-10.63;78.29;101736.78;5009290;28;20416;-86
2022/12/02 04:11:24;;;;;;;1.05;1.05;;;;;;;-10.65;78.25;101733.34;5010845;28;20405;-85
2022/12/02 04:13:51;;;;;;;1.40;1.30;;;;;;;-10.66;78.05;101730.78;5016829;28;20065;-86
2022/12/02 04:16:18;;;;;;;1.40;1.30;;;;;;;-10.65;78.31;101735.13;5015023;28;20504;-87
2022/12/02 04:18:46;;;;;;;1.13;1.13;;;;;;;-10.64;78.36;101727.22;5011238;28;21643;-84
2022/12/02 04:21:13;;;;;;;1.50;1.40;;;;;;;-10.64;78.29;101727.22;5035057;28;20061;-86
2022/12/02 04:23:40;;;;;;;1.40;1.30;;;;;;;-10.59;78.51;101727.09;5015810;28;20530;-85
2022/12/02 04:26:07;;;;;;;1.50;1.40;;;;;;;-10.59;78.32;101727.94;5005581;28;20054;-82
2022/12/02 04:28:34;;;;;;;1.30;1.20;;;;;;;-10.58;78.54;101727.06;5004611;28;20058;-81
2022/12/02 04:31:01;;;;;;;1.35;1.25;;;;;;;-10.59;78.40;101719.28;5009946;28;20196;-84
2022/12/02 04:33:28;;;;;;;1.10;1.10;;;;;;;-10.62;78.47;101721.97;5008854;28;20049;-84
2022/12/02 04:35:55;;;;;;;1.40;1.30;;;;;;;-10.59;78.56;101729.72;5016571;28;20049;-84
2022/12/02 04:38:23;;;;;;;1.40;1.30;;;;;;;-10.61;78.40;101721.06;5015888;28;20064;-84
2022/12/02 04:40:50;;;;;;;1.50;1.40;;;;;;;-10.68;78.46;101717.78;5020505;28;20059;-86
2022/12/02 04:43:17;;;;;;;1.40;1.30;;;;;;;-10.68;78.55;101723.00;5021018;28;20046;-84
2022/12/02 04:45:44;;;;;;;1.50;1.40;;;;;;;-10.68;78.67;101728.22;5018617;28;20053;-84
2022/12/02 04:48:11;;;;;;;1.40;1.30;;;;;;;-10.65;78.76;101727.28;5013767;28;20089;-85
2022/12/02 04:50:38;;;;;;;1.33;1.23;;;;;;;-10.67;78.54;101726.47;5014353;28;20046;-84
2022/12/02 04:53:05;;;;;;;1.10;1.10;;;;;;;-10.66;78.49;101728.16;5017897;28;20093;-84
2022/12/02 04:55:32;;;;;;;1.40;1.30;;;;;;;-10.70;78.60;101725.63;5020734;28;20049;-87
2022/12/02 04:57:59;;;;;;;1.50;1.40;;;;;;;-10.67;78.42;101732.53;5043924;28;20392;-84
2022/12/02 05:00:26;;;;;;;1.30;1.20;;;;;;;-10.66;78.43;101725.56;5028646;28;20056;-85
2022/12/02 05:02:53;;;;;;;1.40;1.30;;;;;;;-10.69;78.41;101723.88;5022885;28;20070;-85
2022/12/02 05:05:20;;;;;;;1.30;1.20;;;;;;;-10.66;78.47;101731.63;4998632;28;20136;-83
2022/12/02 05:07:47;;;;;;;1.05;1.05;;;;;;;-10.74;78.21;101723.16;5015918;28;20160;-84
2022/12/02 05:10:14;;;;;;;1.25;1.20;;;;;;;-10.69;78.46;101734.31;5013605;28;20046;-84
2022/12/02 05:12:42;;;;;;;1.33;1.23;;;;;;;-10.69;78.02;101729.94;5020332;28;20052;-82
2022/12/02 05:15:09;;;;;;;1.42;1.33;;;;;;;-10.73;78.07;101725.72;5011596;28;20057;-84
2022/12/02 05:17:37;;;;;;;1.35;1.25;;;;;;;-10.75;78.29;101731.88;4995398;28;20051;-85
2022/12/02 05:20:09;;;;;;;1.33;1.23;;;;;;;-10.84;78.05;101713.88;4995125;28;20137;-82
2022/12/02 05:22:36;;;;;;;1.45;1.35;;;;;;;-10.73;78.46;101725.72;4998894;28;20120;-86
2022/12/02 05:25:05;;;;;;;1.50;1.40;;;;;;;-10.72;78.24;101726.59;5003811;28;20057;-85
2022/12/02 05:27:32;;;;;;;1.17;1.15;;;;;;;-10.73;78.07;101723.13;5035424;28;20496;-85
2022/12/02 05:30:06;;;;;;;1.40;1.30;;;;;;;-10.73;78.17;101737.94;5036433;28;20539;-89
2022/12/02 05:32:40;;;;;;;1.50;1.40;;;;;;;-10.71;78.08;101737.00;5038856;28;20037;-85
2022/12/02 05:35:07;;;;;;;1.45;1.35;;;;;;;-10.70;78.27;101737.84;5036739;28;20110;-88
2022/12/02 05:37:34;;;;;;;1.17;1.15;;;;;;;-10.66;78.10;101749.88;5037423;28;20401;-88
2022/12/02 05:40:04;;;;;;;1.55;1.45;;;;;;;-10.74;78.33;101737.06;5016086;28;20057;-85
2022/12/02 05:42:33;;;;;;;1.50;1.40;;;;;;;-10.71;78.49;101736.09;5035428;28;20515;-88
2022/12/02 05:45:13;;;;;;;1.40;1.30;;;;;;;-10.74;78.15;101734.44;5007013;28;20567;-88
2022/12/02 05:47:43;;;;;;;1.38;1.27;;;;;;;-10.75;78.19;101734.50;5021512;28;20099;-90
2022/12/02 05:50:12;;;;;;;1.05;1.05;;;;;;;-10.72;78.38;101750.06;5035110;28;20054;-87
2022/12/02 05:52:42;;;;;;;1.10;1.10;;;;;;;-10.68;78.20;101762.16;5020067;28;20702;-85
2022/12/02 05:55:17;;;;;;;1.50;1.40;;;;;;;-10.66;78.31;101755.09;5034253;28;20047;-87
2022/12/02 05:57:46;;;;;;;1.40;1.30;;;;;;;-10.71;78.47;101749.16;5040986;28;20349;-87
2022/12/02 06:00:18;;;;;;;1.40;1.30;;;;;;;-10.66;78.18;101757.72;5038023;28;20060;-86
2022/12/02 06:02:54;;;;;;;1.13;1.13;;;;;;;-10.66;78.44;101754.25;5026423;28;20056;-84
2022/12/02 06:05:25;;;;;;;1.50;1.40;;;;;;;-10.66;78.20;101749.88;5049746;28;20118;-84
2022/12/02 06:08:00;;;;;;;1.40;1.30;;;;;;;-10.67;77.93;101761.25;5040640;28;20061;-87
2022/12/02 06:10:30;;;;;;;1.40;1.30;;;;;;;-10.64;77.87;101760.31;5032540;28;20132;-83
2022/12/02 06:13:05;;;;;;;1.50;1.40;;;;;;;-10.64;77.94;101763.75;5014709;28;20100;-83
2022/12/02 06:15:36;;;;;;;1.40;1.30;;;;;;;-10.63;77.81;101762.00;5017418;28;20050;-88
2022/12/02 06:18:21;;;;;;;1.30;1.20;;;;;;;-10.60;77.72;101752.34;5034025;28;20049;-88
2022/12/02 06:21:03;;;;;;;1.48;1.38;;;;;;;-10.60;77.46;101752.34;5035967;28;20071;-87
2022/12/02 06:23:32;;;;;;;1.50;1.40;;;;;;;-10.58;77.53;101755.78;5033724;28;20059;-87
2022/12/02 06:26:01;;;;;;;1.40;1.30;;;;;;;-10.63;77.22;101759.38;5035611;28;20052;-87
2022/12/02 06:28:29;;;;;;;1.40;1.30;;;;;;;-10.64;77.32;101745.50;5009547;28;20049;-86
2022/12/02 06:31:12;;;;;;;1.40;1.30;;;;;;;-10.56;77.31;101758.31;5024896;28;20054;-89
2022/12/02 06:33:40;;;;;;;1.40;1.30;;;;;;;-10.52;77.17;101758.22;5027436;28;20510;-84
2022/12/02 06:36:33;;;;;;;1.35;1.25;;;;;;;-10.45;77.29;101745.84;5034538;28;20105;-87
2022/12/02 06:39:15;;;;;;;1.23;1.17;;;;;;;-10.35;77.10;101749.06;5039080;28;20030;-88
2022/12/02 06:41:42;;;;;;;1.40;1.30;;;;;;;-10.36;76.95;101755.16;5033465;28;20062;-85
2022/12/02 06:47:32;;;;;;;1.45;1.35;;;;;;;-10.23;76.66;101759.09;4983024;28;20046;-89
2022/12/02 06:50:24;;;;;;;1.50;1.40;;;;;;;-10.20;76.29;101759.03;4996808;28;20057;-87
2022/12/02 06:52:51;;;;;;;1.50;1.40;;;;;;;-10.20;76.63;101753.81;5033299;28;20058;-87
2022/12/02 06:55:18;;;;;;;1.40;1.30;;;;;;;-10.15;76.17;101756.25;5002322;28;20049;-87
2022/12/02 06:57:46;;;;;;;1.30;1.20;;;;;;;-10.19;76.21;101744.22;5034750;28;20049;-88
2022/12/02 07:00:14;;;;;;;1.10;1.10;;;;;;;-10.06;76.18;101766.44;5035021;28;20051;-89
2022/12/02 07:02:42;;;;;;;1.50;1.40;;;;;;;-10.00;76.02;101761.06;5038448;28;20041;-89
2022/12/02 07:05:22;;;;;;;1.40;1.30;;;;;;;-9.91;76.07;101766.00;5012170;28;20049;-89
2022/12/02 07:07:51;;;;;;;1.50;1.40;;;;;;;-9.87;75.88;101761.53;5023901;28;20053;-89
2022/12/02 07:10:35;;;;;;;1.50;1.40;;;;;;;-9.80;75.59;101773.50;5033247;28;20075;-92
2022/12/02 07:13:05;;;;;;;1.30;1.20;;;;;;;-9.80;75.50;101768.28;5049664;28;20112;-91
2022/12/02 07:15:45;;;;;;;1.38;1.27;;;;;;;-9.73;75.37;101772.41;5026400;28;20594;-91
2022/12/02 07:18:19;;;;;;;1.30;1.20;;;;;;;-9.66;75.09;101787.00;5025536;28;20112;-91
2022/12/02 07:21:10;;;;;;;1.00;1.00;;;;;;;-9.64;74.96;101773.91;4979814;28;20051;-88
2022/12/02 07:23:38;;;;;;;1.20;1.15;;;;;;;-9.61;75.05;101772.03;4946412;28;20505;-90
2022/12/02 07:26:08;;;;;;;1.40;1.30;;;;;;;-9.54;74.69;101777.94;4930483;28;20161;-88
2022/12/02 07:28:38;;;;;;;1.00;1.00;;;;;;;-9.42;74.62;101780.19;4979411;28;20059;-92
2022/12/02 07:31:22;;;;;;;1.40;1.30;;;;;;;-9.30;74.40;101778.91;4946626;28;20058;-89
2022/12/02 07:33:52;;;;;;;1.10;1.10;;;;;;;-9.18;73.99;101782.91;4947564;28;20054;-89
2022/12/02 07:36:22;;;;;;;1.15;1.15;;;;;;;-9.07;73.60;101782.53;4951046;28;20489;-89
2022/12/02 07:38:50;;;;;;;1.40;1.30;;;;;;;-9.01;73.08;101785.81;4962477;28;20490;-89
2022/12/02 07:41:38;;;;;;;1.00;1.00;;;;;;;-8.93;72.89;101787.31;4956564;28;20062;-89
2022/12/02 07:44:06;;;;;;;1.30;1.20;;;;;;;-8.92;72.70;101794.25;4962494;28;20050;-88
2022/12/02 07:46:33;;;;;;;1.45;1.35;;;;;;;-8.90;72.53;101790.69;4966736;28;20550;-89
2022/12/02 07:49:01;;;;;;;1.10;1.10;;;;;;;-8.95;72.18;101792.59;4963607;28;20174;-90
2022/12/02 07:51:30;;;;;;;1.30;1.20;;;;;;;-9.01;72.43;101804.13;4926476;28;20047;-87
2022/12/02 07:53:57;;;;;;;1.25;1.17;;;;;;;-8.95;72.09;101800.44;4957272;28;20123;-86
2022/12/02 07:56:25;;;;;;;1.35;1.25;;;;;;;-8.94;71.63;101796.91;4976466;28;20150;-89
2022/12/02 07:58:53;;;;;;;1.33;1.23;;;;;;;-8.98;71.97;101793.56;4986788;28;20080;-86
2022/12/02 08:01:39;;;;;;;1.30;1.20;;;;;;;-8.93;71.93;101792.56;5036925;28;20045;-89
2022/12/02 08:04:16;;;;;;;1.38;1.27;;;;;;;-8.92;71.84;101799.50;5002880;28;20076;-85
2022/12/02 08:06:44;;;;;;;1.10;1.10;;;;;;;-8.86;71.75;101794.03;5040157;28;20052;-90
2022/12/02 08:09:26;;;;;;;1.30;1.20;;;;;;;-8.80;71.40;101802.56;5031004;28;20049;-87
2022/12/02 08:11:53;;;;;;;1.10;1.10;;;;;;;-8.75;71.21;101795.38;5045544;28;20053;-86
2022/12/02 08:14:22;;;;;;;0.95;0.95;;;;;;;-8.70;70.88;101799.63;5041773;28;20046;-88
2022/12/02 08:16:49;;;;;;;1.10;1.10;;;;;;;-8.70;70.45;101799.63;5025818;28;20084;-85
2022/12/02 08:19:16;;;;;;;1.10;1.10;;;;;;;-8.69;70.34;101794.31;5043458;28;20075;-89
2022/12/02 08:21:46;;;;;;;1.40;1.30;;;;;;;-8.69;70.27;101802.19;5006324;28;20057;-89
2022/12/02 08:24:13;;;;;;;1.13;1.13;;;;;;;-8.78;70.23;101792.88;5020782;28;20045;-86
2022/12/02 08:26:43;;;;;;;1.10;1.10;;;;;;;-8.77;70.41;101791.97;5024540;28;20045;-91
2022/12/02 08:29:10;;;;;;;1.15;1.13;;;;;;;-8.79;70.44;101798.16;5025948;28;20084;-86
2022/12/02 08:31:38;;;;;;;1.10;1.10;;;;;;;-8.77;70.24;101789.34;5042317;28;20080;-86
2022/12/02 08:34:05;;;;;;;1.40;1.30;;;;;;;-8.82;70.37;101785.19;5038224;28;20071;-88
2022/12/02 08:36:34;;;;;;;1.17;1.13;;;;;;;-8.83;70.28;101786.94;5024497;28;20385;-87
2022/12/02 08:39:04;;;;;;;1.35;1.25;;;;;;;-8.87;70.09;101787.94;5035339;28;20056;-86
2022/12/02 08:41:33;;;;;;;1.10;1.10;;;;;;;-8.99;70.47;101794.47;5007954;28;20053;-85
2022/12/02 08:44:06;;;;;;;1.40;1.30;;;;;;;-9.02;70.15;101785.84;5042876;28;20063;-87
2022/12/02 08:46:35;;;;;;;1.15;1.15;;;;;;;-8.99;70.04;101791.84;4995169;28;20103;-86
2022/12/02 08:49:05;;;;;;;1.10;1.10;;;;;;;-8.95;69.88;101796.06;5022956;28;20160;-87
2022/12/02 08:51:33;;;;;;;1.40;1.30;;;;;;;-8.90;69.38;101785.44;5034989;28;20049;-88
2022/12/02 08:54:00;;;;;;;1.13;1.10;;;;;;;-8.87;69.25;101793.19;5005695;28;20073;-89
2022/12/02 08:56:31;;;;;;;1.40;1.30;;;;;;;-8.80;68.38;101784.22;5035027;28;20072;-83
2022/12/02 08:58:58;;;;;;;1.33;1.23;;;;;;;-8.78;67.67;101786.81;5034970;28;20029;-86
2022/12/02 09:01:39;;;;;;;1.05;1.05;;;;;;;-8.78;66.91;101786.81;5038332;28;20041;-85
2022/12/02 09:04:12;;;;;;;1.40;1.30;;;;;;;-8.68;66.74;101803.03;4998412;28;20061;-86
2022/12/02 09:06:43;;;;;;;1.33;1.23;;;;;;;-8.81;66.60;101782.53;4987848;28;20508;-86
2022/12/02 09:09:11;;;;;;;1.35;1.25;;;;;;;-8.65;66.33;101787.22;4984146;28;20069;-86
2022/12/02 09:11:38;;;;;;;1.27;1.20;;;;;;;-8.60;66.31;101785.31;5036878;28;20049;-88
2022/12/02 09:14:05;;;;;;;1.30;1.20;;;;;;;-8.55;66.02;101793.84;5035290;28;20059;-88
2022/12/02 09:16:34;;;;;;;1.17;1.17;;;;;;;-8.59;65.95;101787.00;5000840;28;20049;-88
2022/12/02 09:19:12;;;;;;;1.10;1.10;;;;;;;-8.60;66.09;101790.53;5018581;28;20042;-88
2022/12/02 09:21:40;;;;;;;1.10;1.10;;;;;;;-8.66;66.14;101775.03;5006524;28;20091;-86
2022/12/02 09:24:08;;;;;;;1.38;1.27;;;;;;;-8.72;66.15;101779.56;5023364;28;20049;-87
2022/12/02 09:26:44;;;;;;;0.88;0.88;;;;;;;-8.72;65.85;101776.09;5018951;28;20049;-87
2022/12/02 09:29:11;;;;;;;1.00;1.00;;;;;;;-8.76;65.93;101775.38;5020547;28;20049;-87
2022/12/02 09:31:39;;;;;;;1.23;1.20;;;;;;;-8.85;65.87;101759.97;5039731;28;20049;-87
2022/12/02 09:34:06;;;;;;;1.10;1.10;;;;;;;-8.78;65.46;101773.72;5030516;28;20056;-85
2022/12/02 09:36:33;;;;;;;0.90;0.90;;;;;;;-8.84;65.59;101766.06;5033575;28;20045;-85
2022/12/02 09:39:02;;;;;;;1.00;1.00;;;;;;;-8.89;65.58;101773.22;5034597;28;20060;-86
2022/12/02 09:41:31;;;;;;;0.90;0.90;;;;;;;-8.95;65.87;101763.81;5030889;28;20107;-86
2022/12/02 09:43:59;;;;;;;0.90;0.90;;;;;;;-8.98;65.62;101769.16;4983524;28;20478;-84
2022/12/02 09:46:26;;;;;;;1.05;1.05;;;;;;;-8.99;65.62;101767.44;4665668;28;10000022;-86
2022/12/02 09:48:54;;;;;;;1.23;1.17;;;;;;;-8.97;65.55;101776.09;5031814;28;20053;-85
2022/12/02 09:51:24;;;;;;;1.33;1.23;;;;;;;-9.03;65.80;101771.06;5033488;28;20049;-86
2022/12/02 09:53:51;;;;;;;1.40;1.30;;;;;;;-9.05;65.45;101762.41;5011500;28;20064;-84
2022/12/02 09:56:24;;;;;;;0.80;0.80;;;;;;;-9.03;65.18;101779.78;5022050;28;20063;-85
2022/12/02 09:58:56;;;;;;;1.00;1.00;;;;;;;-9.00;65.23;101782.28;5016935;28;20049;-85
2022/12/02 10:01:25;;;;;;;1.10;1.10;;;;;;;-9.01;65.09;101779.72;5021817;28;20199;-87
2022/12/02 10:03:55;;;;;;;1.05;1.05;;;;;;;-9.08;65.07;101770.38;5042012;28;20125;-86
2022/12/02 10:06:25;;;;;;;1.05;1.05;;;;;;;-8.95;65.06;101784.75;5024436;28;20034;-83
2022/12/02 10:08:56;;;;;;;1.10;1.10;;;;;;;-8.99;65.30;101775.28;5021323;28;20068;-84
2022/12/02 10:11:31;;;;;;;1.08;1.08;;;;;;;-8.84;65.16;101781.75;4999999;28;20032;-84
2022/12/02 10:14:02;;;;;;;1.40;1.30;;;;;;;-8.84;64.36;101787.84;5015745;28;20041;-83
2022/12/02 10:16:32;;;;;;;1.00;1.00;;;;;;;-8.79;64.24;101785.91;5014700;28;20053;-84
2022/12/02 10:19:05;;;;;;;1.10;1.10;;;;;;;-8.76;64.04;101793.69;5047587;28;20049;-84
2022/12/02 10:21:34;;;;;;;1.10;1.10;;;;;;;-8.74;63.98;101793.63;4997213;28;20058;-84
2022/12/02 10:24:06;;;;;;;1.02;1.02;;;;;;;-8.87;64.04;101769.63;5030022;28;20060;-84
2022/12/02 10:26:46;;;;;;;1.40;1.30;;;;;;;-8.77;63.80;101791.97;5029290;28;20057;-84
2022/12/02 10:29:24;;;;;;;1.27;1.20;;;;;;;-8.83;63.90;101784.34;5029189;28;20060;-85
2022/12/02 10:31:59;;;;;;;1.23;1.20;;;;;;;-8.82;64.12;101787.81;5030597;28;20080;-84
2022/12/02 10:34:29;;;;;;;1.20;1.17;;;;;;;-8.87;63.86;101781.88;5032022;28;20136;-85
2022/12/02 10:37:24;;;;;;;1.40;1.30;;;;;;;-8.79;64.09;101790.31;5032555;28;20053;-84
2022/12/02 10:40:14;;;;;;;1.25;1.20;;;;;;;-8.82;63.91;101787.81;5016453;28;20106;-84
2022/12/02 10:42:43;;;;;;;1.35;1.25;;;;;;;-8.98;63.99;101779.63;5058292;28;20144;-84
2022/12/02 10:45:23;;;;;;;1.13;1.13;;;;;;;-8.90;64.23;101785.44;5040316;28;20045;-86
2022/12/02 10:48:11;;;;;;;1.10;1.10;;;;;;;-8.82;64.37;101780.78;5025575;28;20041;-83
2022/12/02 10:50:38;;;;;;;0.98;0.98;;;;;;;-8.84;64.32;101780.00;5028822;28;20062;-85
2022/12/02 10:53:19;;;;;;;1.40;1.30;;;;;;;-8.83;64.12;101783.47;5026624;28;20054;-83
2022/12/02 10:55:46;;;;;;;1.10;1.10;;;;;;;-8.82;63.90;101782.56;5001222;28;20059;-84
2022/12/02 10:58:17;;;;;;;1.17;1.15;;;;;;;-8.88;63.98;101780.16;5032551;28;20050;-85
2022/12/02 11:00:44;;;;;;;1.02;1.02;;;;;;;-8.95;64.00;101779.50;5020635;28;20054;-85
2022/12/02 11:03:12;;;;;;;1.00;1.00;;;;;;;-9.02;64.03;101775.38;5015757;28;20057;-84
2022/12/02 11:05:39;;;;;;;0.95;0.95;;;;;;;-9.10;64.19;101775.63;5005266;28;20133;-85
2022/12/02 11:08:22;;;;;;;1.00;1.00;;;;;;;-9.18;64.48;101767.19;4997970;28;20405;-84
2022/12/02 11:11:06;;;;;;;1.02;1.02;;;;;;;-9.08;64.22;101783.44;5035708;28;20053;-84
2022/12/02 11:13:48;;;;;;;1.33;1.23;;;;;;;-9.07;64.12;101779.91;5013732;28;20056;-85
2022/12/02 11:16:31;;;;;;;1.17;1.17;;;;;;;-9.12;64.29;101780.06;4983337;28;20073;-84
2022/12/02 11:19:05;;;;;;;1.30;1.20;;;;;;;-9.21;64.34;101768.16;5020019;28;20056;-83
2022/12/02 11:21:43;;;;;;;1.10;1.10;;;;;;;-9.28;64.66;101771.88;5021375;28;20080;-84
2022/12/02 11:24:31;;;;;;;1.15;1.13;;;;;;;-9.28;64.73;101771.88;5013246;28;20049;-87
2022/12/02 11:27:03;;;;;;;1.10;1.10;;;;;;;-9.36;64.88;101768.66;5018258;28;20115;-83
2022/12/02 11:29:38;;;;;;;1.05;1.05;;;;;;;-9.39;64.89;101771.38;5030005;28;20160;-84
2022/12/02 11:32:37;;;;;;;1.35;1.25;;;;;;;-9.44;65.26;101774.13;5026589;28;20061;-82
2022/12/02 11:35:13;;;;;;;1.10;1.10;;;;;;;-9.50;65.80;101763.00;5017507;28;20115;-86
2022/12/02 11:37:46;;;;;;;1.00;1.00;;;;;;;-9.44;65.24;101771.53;5028616;28;20117;-84
2022/12/02 11:40:16;;;;;;;1.05;1.05;;;;;;;-9.43;65.70;101777.59;4999506;28;20420;-85
2022/12/02 11:42:45;;;;;;;1.50;1.40;;;;;;;-9.41;65.54;101767.94;5016443;28;20049;-84